Time;durP1;ratioP1;P1;durP2;ratioP2;P2;SDS_P1;SDS_P2;PMS_P1;PMS_P2;Temp;Humidity;BMP_temperature;BMP_pressure;BME280_temperature;BME280_humidity;BME280_pressure;Samples;Min_cycle;Max_cycle;Signal;HPM_P1;HPM_P2
2023/11/01 00:00:36;;;;;;;6.13;2.10;;;13.60;99.90;;;;;;2100017;28;20032;-71
2023/11/01 00:01:37;;;;;;;6.05;2.30;;;13.60;99.90;;;;;;2100027;28;20025;-71
2023/11/01 00:02:37;;;;;;;7.65;2.75;;;13.60;99.90;;;;;;2099657;28;20032;-70
2023/11/01 00:03:38;;;;;;;8.32;2.33;;;13.60;99.90;;;;;;2098085;28;20082;-70
2023/11/01 00:04:38;;;;;;;5.18;2.20;;;13.60;99.90;;;;;;2102540;28;20043;-71
2023/11/01 00:05:39;;;;;;;5.45;2.10;;;13.60;99.90;;;;;;2095995;28;20063;-71
2023/11/01 00:06:40;;;;;;;4.55;1.95;;;13.60;99.90;;;;;;2101289;28;20056;-71
2023/11/01 00:07:40;;;;;;;4.88;2.00;;;13.60;99.90;;;;;;2098406;28;20627;-70
2023/11/01 00:08:41;;;;;;;4.57;2.17;;;13.60;99.90;;;;;;2097359;28;20035;-70
2023/11/01 00:09:41;;;;;;;5.95;2.03;;;13.60;99.90;;;;;;2099608;28;20032;-70
2023/11/01 00:10:42;;;;;;;9.88;2.60;;;13.60;99.90;;;;;;2097876;28;20048;-71
2023/11/01 00:11:42;;;;;;;5.70;2.50;;;13.60;99.90;;;;;;2100013;28;20064;-70
2023/11/01 00:12:43;;;;;;;9.07;3.10;;;13.60;99.90;;;;;;2100325;28;20040;-70
2023/11/01 00:13:43;;;;;;;4.70;2.15;;;13.60;99.90;;;;;;2100673;28;20028;-70
2023/11/01 00:14:44;;;;;;;4.72;2.42;;;13.60;99.90;;;;;;2099392;28;20053;-70
2023/11/01 00:15:44;;;;;;;5.55;2.40;;;13.60;99.90;;;;;;2103898;28;20045;-70
2023/11/01 00:16:45;;;;;;;5.45;1.83;;;13.70;99.90;;;;;;2100898;28;20023;-71
2023/11/01 00:17:46;;;;;;;7.90;2.42;;;13.70;99.90;;;;;;2098583;28;20025;-71
2023/11/01 00:18:46;;;;;;;7.82;2.13;;;13.70;99.90;;;;;;2099846;28;20554;-70
2023/11/01 00:19:47;;;;;;;7.63;2.05;;;13.70;99.90;;;;;;2100143;28;20036;-70
2023/11/01 00:20:47;;;;;;;6.63;2.38;;;13.70;99.90;;;;;;2099736;28;20024;-71
2023/11/01 00:21:48;;;;;;;7.80;2.35;;;13.70;99.90;;;;;;2099798;28;20112;-70
2023/11/01 00:22:48;;;;;;;6.20;2.42;;;13.70;99.90;;;;;;2098787;28;20510;-71
2023/11/01 00:23:49;;;;;;;10.02;2.42;;;13.70;99.90;;;;;;2098473;28;20060;-70
2023/11/01 00:24:50;;;;;;;6.57;2.22;;;13.70;99.90;;;;;;2098197;28;20028;-70
2023/11/01 00:25:51;;;;;;;7.55;2.65;;;13.70;99.90;;;;;;2098905;28;20051;-70
2023/11/01 00:26:51;;;;;;;9.10;2.35;;;13.70;99.90;;;;;;2099730;28;20041;-71
2023/11/01 00:27:52;;;;;;;8.20;2.30;;;13.70;99.90;;;;;;2101770;28;20442;-70
2023/11/01 00:28:52;;;;;;;9.40;2.72;;;13.70;99.90;;;;;;2099712;28;20500;-70
2023/11/01 00:29:53;;;;;;;7.93;3.15;;;13.70;99.90;;;;;;2096920;28;20040;-70
2023/11/01 00:30:54;;;;;;;5.93;2.38;;;13.70;99.90;;;;;;2098985;28;20024;-71
2023/11/01 00:31:54;;;;;;;4.75;1.77;;;13.70;99.90;;;;;;2100769;28;20111;-70
2023/11/01 00:32:55;;;;;;;7.85;2.72;;;13.70;99.90;;;;;;2093996;28;20040;-71
2023/11/01 00:33:55;;;;;;;7.90;2.22;;;13.70;99.90;;;;;;2098310;28;20478;-70
2023/11/01 00:34:56;;;;;;;6.35;2.55;;;13.70;99.90;;;;;;2098539;28;20663;-70
2023/11/01 00:35:57;;;;;;;5.95;2.00;;;13.70;99.90;;;;;;2099502;28;20087;-70
2023/11/01 00:36:57;;;;;;;6.40;1.95;;;13.70;99.90;;;;;;2098276;28;20104;-71
2023/11/01 00:37:58;;;;;;;7.22;2.45;;;13.70;99.90;;;;;;2098012;28;20471;-71
2023/11/01 00:38:58;;;;;;;9.45;2.58;;;13.70;99.90;;;;;;2102910;28;20040;-71
2023/11/01 00:39:59;;;;;;;4.32;1.88;;;13.70;99.90;;;;;;2103293;28;20020;-70
2023/11/01 00:41:02;;;;;;;7.63;2.30;;;13.70;99.90;;;;;;2099028;28;20024;-70
2023/11/01 00:42:03;;;;;;;7.45;2.15;;;13.70;99.90;;;;;;2099647;28;20028;-74
2023/11/01 00:43:04;;;;;;;5.85;2.15;;;13.70;99.90;;;;;;2101521;28;20016;-75
2023/11/01 00:44:04;;;;;;;9.93;2.67;;;13.70;99.90;;;;;;2099375;28;20024;-74
2023/11/01 00:45:05;;;;;;;7.22;2.30;;;13.70;99.90;;;;;;2098713;28;20531;-74
2023/11/01 00:46:06;;;;;;;7.45;1.98;;;13.70;99.90;;;;;;2100915;28;20052;-74
2023/11/01 00:47:07;;;;;;;7.55;1.88;;;13.70;99.90;;;;;;2101742;28;20111;-74
2023/11/01 00:48:07;;;;;;;5.15;2.15;;;13.70;99.90;;;;;;2096614;28;20020;-74
2023/11/01 00:49:08;;;;;;;9.30;2.15;;;13.80;99.90;;;;;;2096507;28;20111;-73
2023/11/01 00:50:08;;;;;;;5.75;2.63;;;13.70;99.90;;;;;;2099147;28;20107;-74
2023/11/01 00:51:09;;;;;;;7.97;2.72;;;13.70;99.90;;;;;;2099843;28;20077;-74
2023/11/01 00:52:10;;;;;;;6.45;2.20;;;13.70;99.90;;;;;;2098454;28;20039;-75
2023/11/01 00:53:10;;;;;;;5.45;2.40;;;13.70;99.90;;;;;;2097071;28;20044;-73
2023/11/01 00:54:11;;;;;;;8.25;2.75;;;13.70;99.90;;;;;;2099056;28;20027;-74
2023/11/01 00:55:11;;;;;;;8.07;2.38;;;13.70;99.90;;;;;;2099354;28;20035;-74
2023/11/01 00:56:12;;;;;;;8.70;2.70;;;13.80;99.90;;;;;;2097644;28;20016;-74
2023/11/01 00:57:13;;;;;;;6.75;2.00;;;13.80;99.90;;;;;;2103222;28;20032;-74
2023/11/01 00:58:13;;;;;;;6.85;2.20;;;13.80;99.90;;;;;;2101781;28;20028;-74
2023/11/01 00:59:14;;;;;;;8.38;1.80;;;13.80;99.90;;;;;;2099123;28;20387;-74
2023/11/01 01:00:16;;;;;;;5.93;2.03;;;13.80;99.90;;;;;;2098676;28;20024;-73
2023/11/01 01:01:16;;;;;;;4.25;1.73;;;13.80;99.90;;;;;;2099626;28;20103;-74
2023/11/01 01:02:17;;;;;;;10.20;2.38;;;13.80;99.90;;;;;;2099642;28;20027;-74
2023/11/01 01:03:17;;;;;;;6.90;2.15;;;13.80;99.90;;;;;;2101937;28;20063;-74
2023/11/01 01:04:18;;;;;;;7.57;2.95;;;13.80;99.90;;;;;;2103992;28;20020;-74
2023/11/01 01:05:18;;;;;;;6.93;2.60;;;13.80;99.90;;;;;;2098839;28;20036;-75
2023/11/01 01:06:19;;;;;;;9.57;2.38;;;13.80;99.90;;;;;;2097972;28;20028;-74
2023/11/01 01:07:20;;;;;;;6.55;2.35;;;13.80;99.90;;;;;;2101259;28;20091;-74
2023/11/01 01:08:20;;;;;;;6.57;2.13;;;13.80;99.90;;;;;;2098384;28;20386;-74
2023/11/01 01:09:21;;;;;;;8.73;1.98;;;13.80;99.90;;;;;;2097981;28;20033;-74
2023/11/01 01:10:22;;;;;;;10.43;3.13;;;13.80;99.90;;;;;;2100644;28;20048;-74
2023/11/01 01:11:22;;;;;;;6.45;1.95;;;13.80;99.90;;;;;;2097223;28;20043;-74
2023/11/01 01:12:23;;;;;;;7.38;1.95;;;13.80;99.90;;;;;;2098388;28;20766;-74
2023/11/01 01:13:23;;;;;;;7.80;2.60;;;13.80;99.90;;;;;;2102317;28;20086;-75
2023/11/01 01:14:24;;;;;;;7.28;2.03;;;13.80;99.90;;;;;;2099662;28;20073;-74
2023/11/01 01:15:25;;;;;;;5.57;2.00;;;13.80;99.90;;;;;;2097361;28;20040;-74
2023/11/01 01:16:26;;;;;;;7.63;1.98;;;13.80;99.90;;;;;;2100492;28;20534;-75
2023/11/01 01:17:26;;;;;;;6.78;2.17;;;13.80;99.90;;;;;;2100039;28;20561;-73
2023/11/01 01:18:27;;;;;;;8.02;2.25;;;13.80;99.90;;;;;;2098068;28;20020;-74
2023/11/01 01:19:27;;;;;;;3.25;1.83;;;13.80;99.90;;;;;;2100248;28;20103;-74
2023/11/01 01:20:28;;;;;;;8.32;2.30;;;13.90;99.90;;;;;;2097233;28;20032;-73
2023/11/01 01:21:28;;;;;;;5.80;2.13;;;13.80;99.90;;;;;;2097002;28;20039;-74
2023/11/01 01:22:29;;;;;;;6.63;2.10;;;13.80;99.90;;;;;;2097390;28;20444;-74
2023/11/01 01:23:30;;;;;;;6.75;2.65;;;13.80;99.90;;;;;;2098589;28;20075;-74
2023/11/01 01:24:30;;;;;;;7.38;2.40;;;13.80;99.90;;;;;;2097538;28;20438;-74
2023/11/01 01:25:31;;;;;;;6.75;2.67;;;13.80;99.90;;;;;;2100238;28;20123;-74
2023/11/01 01:26:32;;;;;;;6.85;1.83;;;13.90;99.90;;;;;;2098756;28;20039;-74
2023/11/01 01:27:32;;;;;;;6.38;2.50;;;13.80;99.90;;;;;;2097236;28;20032;-74
2023/11/01 01:28:33;;;;;;;7.35;2.10;;;13.90;99.90;;;;;;2101059;28;20024;-75
2023/11/01 01:29:33;;;;;;;7.85;2.58;;;13.90;99.90;;;;;;2102436;28;20032;-74
2023/11/01 01:30:34;;;;;;;5.20;2.33;;;13.90;99.90;;;;;;2095963;28;20948;-75
2023/11/01 01:31:34;;;;;;;8.15;2.70;;;13.90;99.90;;;;;;2097998;28;20036;-75
2023/11/01 01:32:35;;;;;;;6.05;2.22;;;13.90;99.90;;;;;;2097369;28;20637;-75
2023/11/01 01:33:35;;;;;;;6.65;2.25;;;13.90;99.90;;;;;;2098052;28;20123;-74
2023/11/01 01:34:36;;;;;;;6.50;2.40;;;13.90;99.90;;;;;;2098474;28;20044;-74
2023/11/01 01:35:36;;;;;;;4.50;2.25;;;13.90;99.90;;;;;;2097954;28;20219;-74
2023/11/01 01:36:37;;;;;;;4.25;1.95;;;13.90;99.90;;;;;;2100347;28;20139;-74
2023/11/01 01:37:37;;;;;;;7.47;2.40;;;13.90;99.90;;;;;;2099168;28;20066;-74
2023/11/01 01:38:38;;;;;;;6.82;2.40;;;13.90;99.90;;;;;;2098500;28;20470;-74
2023/11/01 01:39:39;;;;;;;7.60;2.40;;;13.90;99.90;;;;;;2099426;28;20062;-73
2023/11/01 01:40:39;;;;;;;7.80;2.53;;;13.90;99.90;;;;;;2097484;28;20069;-74
2023/11/01 01:41:40;;;;;;;4.85;1.90;;;13.90;99.90;;;;;;2098236;28;20062;-73
2023/11/01 01:42:40;;;;;;;8.38;2.63;;;14.00;99.90;;;;;;2101174;28;20616;-74
2023/11/01 01:43:41;;;;;;;7.90;2.55;;;14.00;99.90;;;;;;2098230;28;20024;-74
2023/11/01 01:44:42;;;;;;;8.35;2.35;;;14.00;99.90;;;;;;2097523;28;20020;-74
2023/11/01 01:45:42;;;;;;;9.32;2.53;;;14.00;99.90;;;;;;2098033;28;20025;-74
2023/11/01 01:46:43;;;;;;;9.68;2.28;;;14.00;99.90;;;;;;2098286;28;20119;-74
2023/11/01 01:47:45;;;;;;;7.90;2.25;;;14.00;99.90;;;;;;2098091;28;20111;-74
2023/11/01 01:48:46;;;;;;;7.65;2.45;;;13.90;99.90;;;;;;2101408;28;20077;-74
2023/11/01 01:49:46;;;;;;;8.15;2.58;;;14.00;99.90;;;;;;2101699;28;20024;-74
2023/11/01 01:50:47;;;;;;;5.95;1.98;;;14.00;99.90;;;;;;2098763;28;20831;-74
2023/11/01 01:51:48;;;;;;;6.65;2.10;;;14.00;99.90;;;;;;2098885;28;20036;-74
2023/11/01 01:52:48;;;;;;;7.30;2.38;;;14.00;99.90;;;;;;2099840;28;20024;-74
2023/11/01 01:53:51;;;;;;;10.85;2.90;;;14.00;99.90;;;;;;2096790;28;20029;-74
2023/11/01 01:54:52;;;;;;;5.97;1.90;;;14.00;99.90;;;;;;2102614;28;20032;-74
2023/11/01 01:55:54;;;;;;;4.90;2.03;;;14.00;99.90;;;;;;2100972;28;20024;-74
2023/11/01 01:56:54;;;;;;;7.97;2.10;;;14.00;99.90;;;;;;2098596;28;20030;-74
2023/11/01 01:58:00;;;;;;;5.90;1.90;;;13.90;99.90;;;;;;2097054;28;20031;-74
2023/11/01 01:59:01;;;;;;;3.72;1.80;;;13.90;99.90;;;;;;2106118;28;20055;-74
2023/11/01 02:00:02;;;;;;;5.97;1.98;;;13.90;99.90;;;;;;2106223;28;20028;-74
2023/11/01 02:01:04;;;;;;;4.97;1.95;;;13.90;99.90;;;;;;2101357;28;20112;-74
2023/11/01 02:02:06;;;;;;;6.20;1.98;;;14.00;99.90;;;;;;2103478;28;20036;-74
2023/11/01 02:03:06;;;;;;;6.65;2.28;;;13.90;99.90;;;;;;2099320;28;20024;-74
2023/11/01 02:04:07;;;;;;;7.03;2.28;;;13.90;99.90;;;;;;2092077;28;20069;-74
2023/11/01 02:05:09;;;;;;;9.00;2.25;;;13.90;99.90;;;;;;2100846;28;20031;-74
2023/11/01 02:06:10;;;;;;;5.63;2.25;;;13.90;99.90;;;;;;2097280;28;20028;-74
2023/11/01 02:07:10;;;;;;;4.85;1.60;;;13.90;99.90;;;;;;2096932;28;20070;-74
2023/11/01 02:08:11;;;;;;;5.47;1.77;;;13.90;99.90;;;;;;2099420;28;20420;-74
2023/11/01 02:09:16;;;;;;;4.68;1.98;;;13.90;99.90;;;;;;2101629;28;20111;-74
2023/11/01 02:10:16;;;;;;;10.38;2.58;;;13.90;99.90;;;;;;2102473;28;20791;-74
2023/11/01 02:11:17;;;;;;;5.45;1.85;;;13.90;99.90;;;;;;2098687;28;20532;-74
2023/11/01 02:12:18;;;;;;;5.53;2.08;;;13.90;99.90;;;;;;2099755;28;20024;-74
2023/11/01 02:13:18;;;;;;;6.53;1.83;;;13.80;99.90;;;;;;2096843;28;20036;-74
2023/11/01 02:14:21;;;;;;;4.68;1.73;;;13.90;99.90;;;;;;2099459;28;20035;-74
2023/11/01 02:15:21;;;;;;;4.50;1.73;;;13.90;99.90;;;;;;2099320;28;20063;-74
2023/11/01 02:16:22;;;;;;;6.22;1.70;;;13.90;99.90;;;;;;2105210;28;20032;-75
2023/11/01 02:17:23;;;;;;;7.95;2.45;;;13.90;99.90;;;;;;2097788;28;20495;-74
2023/11/01 02:18:24;;;;;;;4.93;1.65;;;13.80;99.90;;;;;;2101151;28;20631;-74
2023/11/01 02:19:24;;;;;;;6.18;2.00;;;13.80;99.90;;;;;;2097387;28;20471;-73
2023/11/01 02:20:27;;;;;;;5.72;1.80;;;13.80;99.90;;;;;;2100845;28;20016;-74
2023/11/01 02:21:27;;;;;;;7.07;2.08;;;13.80;99.90;;;;;;2100749;28;20082;-74
2023/11/01 02:22:28;;;;;;;7.95;1.63;;;13.80;99.90;;;;;;2103516;28;20028;-74
2023/11/01 02:23:33;;;;;;;5.68;2.08;;;13.80;99.90;;;;;;2096175;28;20046;-74
2023/11/01 02:24:34;;;;;;;7.28;1.83;;;13.80;99.90;;;;;;2096971;28;20206;-74
2023/11/01 02:25:35;;;;;;;4.82;1.80;;;13.80;99.90;;;;;;2098939;28;20028;-74
2023/11/01 02:26:35;;;;;;;8.43;2.47;;;13.80;99.90;;;;;;2099827;28;20043;-74
2023/11/01 02:27:36;;;;;;;6.53;1.88;;;13.80;99.90;;;;;;2089682;28;20051;-74
2023/11/01 02:28:37;;;;;;;4.75;1.60;;;13.80;99.90;;;;;;2099639;28;20032;-74
2023/11/01 02:29:38;;;;;;;5.15;1.95;;;13.80;99.90;;;;;;2101162;28;20703;-74
2023/11/01 02:30:42;;;;;;;4.80;1.70;;;13.80;99.90;;;;;;2093562;28;20036;-73
2023/11/01 02:31:43;;;;;;;4.30;1.80;;;13.80;99.90;;;;;;2093665;28;20059;-74
2023/11/01 02:32:47;;;;;;;4.47;1.80;;;13.80;99.90;;;;;;2092035;28;20029;-73
2023/11/01 02:33:48;;;;;;;4.78;1.83;;;13.80;99.90;;;;;;2100216;28;20040;-74
2023/11/01 02:34:49;;;;;;;5.85;1.52;;;13.80;99.90;;;;;;2101121;28;20077;-74
2023/11/01 02:35:50;;;;;;;5.03;1.63;;;13.80;99.90;;;;;;2102838;28;20174;-74
2023/11/01 02:36:50;;;;;;;7.95;1.85;;;13.80;99.90;;;;;;2097171;28;20035;-74
2023/11/01 02:37:51;;;;;;;4.22;1.35;;;13.80;99.90;;;;;;2098205;28;20052;-74
2023/11/01 02:38:51;;;;;;;5.68;1.75;;;13.80;99.90;;;;;;2102389;28;20023;-74
2023/11/01 02:39:53;;;;;;;3.63;1.40;;;13.80;99.90;;;;;;2101908;28;20066;-74
2023/11/01 02:40:53;;;;;;;5.40;1.70;;;13.80;99.90;;;;;;2099321;28;20017;-74
2023/11/01 02:41:54;;;;;;;6.13;1.63;;;13.80;99.90;;;;;;2097323;28;20482;-74
2023/11/01 02:42:55;;;;;;;4.05;1.70;;;13.80;99.90;;;;;;2097978;28;20048;-74
2023/11/01 02:43:56;;;;;;;7.60;1.80;;;13.80;99.90;;;;;;2096471;28;20020;-74
2023/11/01 02:44:56;;;;;;;5.65;1.95;;;13.80;99.90;;;;;;2100776;28;20028;-74
2023/11/01 02:45:58;;;;;;;6.13;1.95;;;13.80;99.90;;;;;;2101224;28;20590;-74
2023/11/01 02:46:58;;;;;;;4.15;1.52;;;13.80;99.90;;;;;;2098396;28;20048;-74
2023/11/01 02:47:59;;;;;;;5.55;2.33;;;13.80;99.90;;;;;;2096838;28;20042;-74
2023/11/01 02:49:00;;;;;;;3.38;1.73;;;13.80;99.90;;;;;;2097780;28;20017;-74
2023/11/01 02:50:01;;;;;;;7.03;1.83;;;13.80;99.90;;;;;;2097037;28;20024;-74
2023/11/01 02:51:02;;;;;;;5.07;1.83;;;13.80;99.90;;;;;;2099309;28;20032;-73
2023/11/01 02:52:03;;;;;;;4.75;1.67;;;13.80;99.90;;;;;;2100608;28;20506;-74
2023/11/01 02:53:03;;;;;;;5.88;1.80;;;13.80;99.90;;;;;;2102474;28;20167;-74
2023/11/01 02:54:04;;;;;;;4.03;1.40;;;13.80;99.90;;;;;;2098175;28;21570;-73
2023/11/01 02:55:10;;;;;;;5.70;1.60;;;13.80;99.90;;;;;;2097321;28;20035;-74
2023/11/01 02:56:10;;;;;;;5.68;1.85;;;13.80;99.90;;;;;;2098457;28;20021;-74
2023/11/01 02:57:11;;;;;;;3.88;1.60;;;13.80;99.90;;;;;;2099044;28;20025;-74
2023/11/01 02:58:12;;;;;;;3.75;1.50;;;13.80;99.90;;;;;;2098889;28;20593;-74
2023/11/01 02:59:12;;;;;;;4.97;1.65;;;13.80;99.90;;;;;;2097425;28;20039;-74
2023/11/01 03:00:19;;;;;;;5.05;1.60;;;13.80;99.90;;;;;;2098846;28;20127;-74
2023/11/01 03:01:21;;;;;;;6.32;1.45;;;13.70;99.90;;;;;;2097720;28;20025;-74
2023/11/01 03:02:21;;;;;;;6.45;2.13;;;13.80;99.90;;;;;;2098123;28;20016;-74
2023/11/01 03:03:22;;;;;;;4.15;1.45;;;13.80;99.90;;;;;;2106849;28;20016;-74
2023/11/01 03:04:23;;;;;;;4.07;1.63;;;13.70;99.90;;;;;;2105546;28;20900;-74
2023/11/01 03:05:27;;;;;;;4.85;1.48;;;13.70;99.90;;;;;;2098803;28;20032;-74
2023/11/01 03:06:29;;;;;;;3.55;1.35;;;13.70;99.90;;;;;;2100171;28;20466;-74
2023/11/01 03:07:29;;;;;;;4.65;1.45;;;13.70;99.90;;;;;;2098089;28;20025;-73
2023/11/01 03:08:30;;;;;;;3.85;1.67;;;13.70;99.90;;;;;;2097813;28;20039;-74
2023/11/01 03:09:30;;;;;;;5.35;1.67;;;13.70;99.90;;;;;;2099154;28;20032;-74
2023/11/01 03:10:31;;;;;;;5.05;1.63;;;13.70;99.90;;;;;;2098714;28;20041;-74
2023/11/01 03:11:31;;;;;;;3.63;1.33;;;13.60;99.90;;;;;;2094710;28;20071;-74
2023/11/01 03:12:32;;;;;;;6.53;2.67;;;13.60;99.90;;;;;;2103453;28;20024;-74
2023/11/01 03:13:32;;;;;;;4.35;1.30;;;13.70;99.90;;;;;;2099588;28;20036;-74
2023/11/01 03:14:33;;;;;;;7.05;1.67;;;13.70;99.90;;;;;;2100242;28;20037;-74
2023/11/01 03:15:34;;;;;;;6.18;1.80;;;13.70;99.90;;;;;;2098033;28;20040;-74
2023/11/01 03:16:36;;;;;;;3.90;1.60;;;13.70;99.90;;;;;;2100616;28;20494;-74
2023/11/01 03:17:36;;;;;;;4.55;1.67;;;13.70;99.90;;;;;;2102220;28;20677;-73
2023/11/01 03:18:37;;;;;;;4.93;1.90;;;13.60;99.90;;;;;;2099324;28;20032;-74
2023/11/01 03:19:38;;;;;;;8.32;1.70;;;13.60;99.90;;;;;;2100069;28;20402;-74
2023/11/01 03:20:38;;;;;;;5.93;1.77;;;13.70;99.90;;;;;;2098503;28;20080;-74
2023/11/01 03:21:41;;;;;;;4.88;1.60;;;13.70;99.90;;;;;;2098683;28;20078;-74
2023/11/01 03:22:42;;;;;;;5.57;1.50;;;13.60;99.90;;;;;;2100678;28;20062;-74
2023/11/01 03:23:42;;;;;;;6.93;1.92;;;13.70;99.90;;;;;;2100542;28;20085;-73
2023/11/01 03:24:43;;;;;;;5.20;1.50;;;13.70;99.90;;;;;;2100240;28;20140;-74
2023/11/01 03:25:43;;;;;;;4.68;1.65;;;13.70;99.90;;;;;;2099489;28;20126;-74
2023/11/01 03:26:45;;;;;;;4.53;1.42;;;13.70;99.90;;;;;;2098816;28;20060;-73
2023/11/01 03:27:46;;;;;;;5.43;1.80;;;13.70;99.90;;;;;;2099860;28;20024;-74
2023/11/01 03:28:46;;;;;;;4.80;1.60;;;13.70;99.90;;;;;;2099382;28;20086;-74
2023/11/01 03:29:47;;;;;;;4.70;1.48;;;13.60;99.90;;;;;;2098492;28;20488;-73
2023/11/01 03:30:47;;;;;;;4.35;1.52;;;13.60;99.90;;;;;;2094792;28;20800;-73
2023/11/01 03:31:48;;;;;;;6.63;1.70;;;13.70;99.90;;;;;;2097482;28;20445;-73
2023/11/01 03:32:49;;;;;;;4.63;1.65;;;13.60;99.90;;;;;;2099368;28;20025;-73
2023/11/01 03:33:50;;;;;;;7.18;1.70;;;13.60;99.90;;;;;;2101179;28;20419;-74
2023/11/01 03:34:51;;;;;;;6.28;1.48;;;13.60;99.90;;;;;;2099913;28;20028;-74
2023/11/01 03:35:52;;;;;;;3.28;1.58;;;13.60;99.90;;;;;;2098872;28;20455;-74
2023/11/01 03:36:53;;;;;;;5.70;1.73;;;13.60;99.90;;;;;;2098920;28;20417;-74
2023/11/01 03:37:53;;;;;;;5.85;1.50;;;13.60;99.90;;;;;;2089386;28;20033;-73
2023/11/01 03:38:54;;;;;;;3.47;1.30;;;13.60;99.90;;;;;;2092165;28;20052;-74
2023/11/01 03:39:54;;;;;;;3.63;1.55;;;13.60;99.90;;;;;;2093766;28;20552;-73
2023/11/01 03:40:55;;;;;;;5.40;1.67;;;13.60;99.90;;;;;;2100776;28;20021;-74
2023/11/01 03:41:55;;;;;;;2.78;1.13;;;13.60;99.90;;;;;;2099210;28;20051;-74
2023/11/01 03:42:56;;;;;;;3.97;1.27;;;13.60;99.90;;;;;;2105459;28;20745;-73
2023/11/01 03:43:59;;;;;;;6.43;1.80;;;13.60;99.90;;;;;;2106472;28;20463;-74
2023/11/01 03:44:59;;;;;;;3.50;1.27;;;13.60;99.90;;;;;;2100099;28;20023;-74
2023/11/01 03:46:00;;;;;;;6.63;1.42;;;13.60;99.90;;;;;;2099132;28;20024;-74
2023/11/01 03:47:01;;;;;;;2.70;1.42;;;13.60;99.90;;;;;;2097860;28;20383;-74
2023/11/01 03:48:01;;;;;;;6.18;2.83;;;13.60;99.90;;;;;;2098460;28;20027;-73
2023/11/01 03:49:02;;;;;;;4.68;1.25;;;13.60;99.90;;;;;;2098867;28;20047;-74
2023/11/01 03:50:03;;;;;;;3.35;1.20;;;13.60;99.90;;;;;;2098189;28;20028;-74
2023/11/01 03:51:04;;;;;;;4.03;1.60;;;13.60;99.90;;;;;;2099547;28;20580;-74
2023/11/01 03:52:05;;;;;;;3.83;1.38;;;13.60;99.90;;;;;;2098666;28;20482;-73
2023/11/01 03:53:06;;;;;;;5.63;1.60;;;13.60;99.90;;;;;;2098208;28;20024;-74
2023/11/01 03:54:07;;;;;;;8.88;1.20;;;13.60;99.90;;;;;;2099581;28;20484;-73
2023/11/01 03:55:11;;;;;;;5.28;1.55;;;13.60;99.90;;;;;;2089523;28;20051;-74
2023/11/01 03:56:12;;;;;;;5.93;1.42;;;13.60;99.90;;;;;;2101348;28;20071;-74
2023/11/01 03:57:12;;;;;;;6.40;1.40;;;13.60;99.90;;;;;;2097314;28;20017;-74
2023/11/01 03:58:13;;;;;;;3.88;1.30;;;13.60;99.90;;;;;;2098521;28;20381;-74
2023/11/01 03:59:14;;;;;;;4.10;1.17;;;13.60;99.90;;;;;;2099376;28;20099;-75
2023/11/01 04:00:20;;;;;;;5.40;1.33;;;13.60;99.90;;;;;;2102921;28;20115;-74
2023/11/01 04:01:21;;;;;;;2.72;0.95;;;13.60;99.90;;;;;;2095593;28;20021;-74
2023/11/01 04:02:22;;;;;;;4.38;1.30;;;13.60;99.90;;;;;;2101020;28;20029;-73
2023/11/01 04:03:26;;;;;;;5.13;1.30;;;13.60;99.90;;;;;;2100263;28;20028;-74
2023/11/01 04:04:27;;;;;;;5.57;1.13;;;13.60;99.90;;;;;;2099543;28;20020;-74
2023/11/01 04:05:27;;;;;;;4.32;1.40;;;13.50;99.90;;;;;;2099484;28;20026;-74
2023/11/01 04:06:28;;;;;;;6.32;1.65;;;13.60;99.90;;;;;;2098807;28;20029;-74
2023/11/01 04:07:28;;;;;;;4.25;1.30;;;13.60;99.90;;;;;;2103223;28;20046;-74
2023/11/01 04:08:29;;;;;;;3.25;1.13;;;13.50;99.90;;;;;;2102281;28;20127;-74
2023/11/01 04:09:30;;;;;;;3.60;1.23;;;13.50;99.90;;;;;;2106325;28;20112;-74
2023/11/01 04:10:30;;;;;;;3.47;1.13;;;13.50;99.90;;;;;;2105216;28;20162;-74
2023/11/01 04:11:31;;;;;;;2.58;1.02;;;13.50;99.90;;;;;;2099985;28;20040;-74
2023/11/01 04:12:32;;;;;;;2.63;0.88;;;13.50;99.90;;;;;;2097646;28;20033;-73
2023/11/01 04:13:32;;;;;;;6.38;1.30;;;13.50;99.90;;;;;;2099376;28;20047;-74
2023/11/01 04:14:33;;;;;;;2.05;0.85;;;13.50;99.90;;;;;;2103791;28;20027;-74
2023/11/01 04:15:33;;;;;;;3.90;1.25;;;13.60;99.90;;;;;;2092635;28;20043;-74
2023/11/01 04:16:34;;;;;;;5.25;0.98;;;13.60;99.90;;;;;;2097104;28;20028;-74
2023/11/01 04:17:34;;;;;;;5.28;1.33;;;13.60;99.90;;;;;;2099021;28;20032;-74
2023/11/01 04:18:35;;;;;;;3.15;1.10;;;13.60;99.90;;;;;;2098968;28;20804;-74
2023/11/01 04:19:36;;;;;;;3.97;0.80;;;13.60;99.90;;;;;;2098877;28;20036;-74
2023/11/01 04:20:36;;;;;;;4.30;1.23;;;13.60;99.90;;;;;;2098732;28;20060;-74
2023/11/01 04:21:37;;;;;;;2.58;0.80;;;13.60;99.90;;;;;;2099408;28;20028;-74
2023/11/01 04:22:38;;;;;;;2.47;1.00;;;13.60;99.90;;;;;;2099411;28;20036;-74
2023/11/01 04:23:39;;;;;;;3.17;1.02;;;13.60;99.90;;;;;;2098570;28;20028;-74
2023/11/01 04:24:39;;;;;;;4.25;1.15;;;13.60;99.90;;;;;;2098229;28;20020;-74
2023/11/01 04:25:40;;;;;;;2.17;0.80;;;13.60;99.90;;;;;;2099825;28;20467;-74
2023/11/01 04:26:41;;;;;;;2.55;0.80;;;13.60;99.90;;;;;;2093217;28;20528;-74
2023/11/01 04:27:42;;;;;;;2.83;1.05;;;13.50;99.90;;;;;;2098992;28;20118;-73
2023/11/01 04:28:42;;;;;;;3.80;1.08;;;13.50;99.90;;;;;;2099622;28;20036;-74
2023/11/01 04:29:43;;;;;;;2.75;0.80;;;13.50;99.90;;;;;;2100965;28;20036;-73
2023/11/01 04:30:44;;;;;;;2.40;0.75;;;13.50;99.90;;;;;;2098894;28;20028;-74
2023/11/01 04:31:44;;;;;;;3.60;0.90;;;13.50;99.90;;;;;;2100535;28;20090;-74
2023/11/01 04:32:45;;;;;;;2.72;1.25;;;13.50;99.90;;;;;;2104043;28;20066;-74
2023/11/01 04:33:46;;;;;;;3.38;0.80;;;13.50;99.90;;;;;;2099630;28;20032;-74
2023/11/01 04:34:49;;;;;;;2.42;0.93;;;13.50;99.90;;;;;;2100224;28;20028;-74
2023/11/01 04:35:53;;;;;;;1.92;0.90;;;13.50;99.90;;;;;;2100784;28;20105;-74
2023/11/01 04:36:54;;;;;;;2.75;1.17;;;13.50;99.90;;;;;;2098966;28;20024;-73
2023/11/01 04:37:55;;;;;;;3.25;1.10;;;13.50;99.90;;;;;;2100946;28;20024;-74
2023/11/01 04:38:57;;;;;;;3.10;0.90;;;13.60;99.90;;;;;;2100960;28;20030;-74
2023/11/01 04:39:57;;;;;;;0.98;0.73;;;13.50;99.90;;;;;;2100542;28;20013;-73
2023/11/01 04:40:58;;;;;;;1.98;0.80;;;13.50;99.90;;;;;;2099478;28;20025;-74
2023/11/01 04:41:58;;;;;;;1.35;0.60;;;13.60;99.90;;;;;;2095897;28;20813;-74
2023/11/01 04:42:59;;;;;;;1.30;0.60;;;13.50;99.90;;;;;;2100165;28;20048;-74
2023/11/01 04:43:59;;;;;;;4.43;0.90;;;13.50;99.90;;;;;;2101124;28;20082;-74
2023/11/01 04:45:00;;;;;;;1.55;0.57;;;13.60;99.90;;;;;;2098153;28;20082;-74
2023/11/01 04:46:00;;;;;;;2.78;0.70;;;13.60;99.90;;;;;;2098618;28;20082;-74
2023/11/01 04:47:01;;;;;;;2.72;1.05;;;13.60;99.90;;;;;;2098552;28;20094;-74
2023/11/01 04:48:03;;;;;;;1.38;0.77;;;13.60;99.90;;;;;;2098546;28;20028;-74
2023/11/01 04:49:04;;;;;;;3.55;1.85;;;13.60;99.90;;;;;;2102844;28;20059;-74
2023/11/01 04:50:09;;;;;;;2.80;0.75;;;13.60;99.90;;;;;;2103307;28;20127;-74
2023/11/01 04:51:09;;;;;;;2.58;0.90;;;13.60;99.90;;;;;;2099450;28;20051;-74
2023/11/01 04:52:11;;;;;;;0.95;0.73;;;13.60;99.90;;;;;;2099440;28;20032;-74
2023/11/01 04:53:11;;;;;;;2.28;0.95;;;13.60;99.90;;;;;;2098711;28;20103;-74
2023/11/01 04:54:12;;;;;;;1.75;0.75;;;13.60;99.90;;;;;;2103031;28;20024;-73
2023/11/01 04:55:12;;;;;;;2.25;0.80;;;13.60;99.90;;;;;;2102104;28;20677;-74
2023/11/01 04:56:15;;;;;;;1.58;0.70;;;13.60;99.90;;;;;;2098732;28;20032;-74
2023/11/01 04:57:16;;;;;;;1.75;0.95;;;13.60;99.90;;;;;;2099405;28;20051;-74
2023/11/01 04:58:16;;;;;;;1.25;1.00;;;13.60;99.90;;;;;;2097018;28;20025;-74
2023/11/01 04:59:17;;;;;;;3.78;1.10;;;13.60;99.90;;;;;;2092478;28;20026;-74
2023/11/01 05:00:18;;;;;;;3.63;0.75;;;13.70;99.90;;;;;;2092226;28;20451;-74
2023/11/01 05:01:20;;;;;;;1.90;0.98;;;13.60;99.90;;;;;;2102909;28;20024;-74
2023/11/01 05:02:21;;;;;;;3.10;0.75;;;13.60;99.90;;;;;;2100196;28;20052;-74
2023/11/01 05:03:22;;;;;;;6.50;0.77;;;13.70;99.90;;;;;;2091348;28;20028;-74
2023/11/01 05:04:23;;;;;;;2.17;0.85;;;13.70;99.90;;;;;;2094246;28;20155;-74
2023/11/01 05:05:24;;;;;;;2.58;0.98;;;13.70;99.90;;;;;;2100310;28;20032;-76
2023/11/01 05:06:26;;;;;;;1.25;0.60;;;13.70;99.90;;;;;;2098793;28;20388;-74
2023/11/01 05:07:27;;;;;;;1.52;0.60;;;13.70;99.90;;;;;;2100709;28;20044;-74
2023/11/01 05:08:28;;;;;;;1.80;0.85;;;13.70;99.90;;;;;;2098758;28;20979;-74
2023/11/01 05:09:28;;;;;;;2.75;0.85;;;13.70;99.90;;;;;;2097899;28;20035;-74
2023/11/01 05:10:29;;;;;;;1.38;0.60;;;13.70;99.90;;;;;;2097965;28;20036;-75
2023/11/01 05:11:30;;;;;;;1.92;0.95;;;13.70;99.90;;;;;;2100780;28;20040;-75
2023/11/01 05:12:31;;;;;;;1.63;0.75;;;13.70;99.90;;;;;;2099310;28;20411;-74
2023/11/01 05:13:31;;;;;;;2.90;0.80;;;13.70;99.90;;;;;;2099172;28;20479;-74
2023/11/01 05:14:32;;;;;;;2.28;1.02;;;13.70;99.90;;;;;;2099262;28;20028;-75
2023/11/01 05:15:36;;;;;;;2.22;0.63;;;13.70;99.90;;;;;;2097436;28;20100;-74
2023/11/01 05:16:37;;;;;;;2.70;0.70;;;13.70;99.90;;;;;;2098236;28;20491;-74